createdAt,value
2023-01-19T00:00:51.517Z,63.90
2023-01-19T00:03:18.546Z,64.20
2023-01-19T00:05:45.712Z,63.70
2023-01-19T00:08:17.056Z,63.80
2023-01-19T00:10:46.216Z,63.90
2023-01-19T00:13:13.912Z,63.70
2023-01-19T00:15:40.870Z,62.50
2023-01-19T00:18:09.685Z,62.70
2023-01-19T00:20:37.927Z,62.80
2023-01-19T00:23:05.175Z,63.00
2023-01-19T00:25:31.953Z,62.70
2023-01-19T00:28:01.440Z,62.10
2023-01-19T00:30:28.821Z,61.40
2023-01-19T00:32:55.989Z,61.20
2023-01-19T00:35:22.752Z,61.40
2023-01-19T00:37:49.460Z,61.50
2023-01-19T00:40:16.609Z,61.70
2023-01-19T00:42:48.358Z,62.00
2023-01-19T00:45:23.554Z,61.80
2023-01-19T00:47:54.756Z,61.90
2023-01-19T00:50:21.560Z,62.00
2023-01-19T00:52:48.231Z,62.40
2023-01-19T00:55:16.517Z,61.30
2023-01-19T00:57:43.400Z,60.70
2023-01-19T01:00:12.908Z,61.00
2023-01-19T01:02:41.168Z,60.80
2023-01-19T01:05:09.096Z,60.70
2023-01-19T01:07:40.878Z,60.40
2023-01-19T01:10:09.884Z,60.30
2023-01-19T01:12:37.502Z,60.30
2023-01-19T01:15:07.008Z,60.30
2023-01-19T01:17:34.127Z,60.20
2023-01-19T01:20:00.902Z,60.00
2023-01-19T01:22:27.740Z,59.60
2023-01-19T01:24:54.584Z,59.50
2023-01-19T01:27:21.351Z,59.40
2023-01-19T01:29:48.582Z,59.00
2023-01-19T01:32:16.766Z,58.70
2023-01-19T01:34:43.909Z,58.60
2023-01-19T01:37:10.699Z,58.30
2023-01-19T01:39:37.720Z,58.50
2023-01-19T01:42:17.851Z,58.40
2023-01-19T01:44:51.484Z,57.80
2023-01-19T01:47:23.994Z,56.90
2023-01-19T01:49:57.197Z,57.00
2023-01-19T01:52:26.988Z,57.30
2023-01-19T01:54:53.878Z,57.20
2023-01-19T01:57:20.809Z,56.90
2023-01-19T01:59:49.571Z,56.90
2023-01-19T02:02:40.372Z,56.30
2023-01-19T02:05:11.538Z,57.30
2023-01-19T02:08:12.516Z,56.60
2023-01-19T02:10:59.549Z,56.10
2023-01-19T02:13:28.569Z,55.60
2023-01-19T02:16:01.072Z,56.10
2023-01-19T02:18:29.812Z,56.20
2023-01-19T02:21:02.668Z,56.60
2023-01-19T02:23:43.239Z,56.20
2023-01-19T02:26:13.686Z,55.80
2023-01-19T02:28:46.419Z,55.50
2023-01-19T02:31:15.120Z,55.50
2023-01-19T02:33:42.158Z,55.50
2023-01-19T02:36:12.003Z,55.70
2023-01-19T02:38:40.322Z,55.50
2023-01-19T02:41:08.928Z,55.40
2023-01-19T02:43:37.316Z,55.20
2023-01-19T02:46:04.277Z,54.90
2023-01-19T02:48:31.282Z,54.90
2023-01-19T02:51:04.472Z,54.90
2023-01-19T02:54:05.845Z,54.60
2023-01-19T02:56:38.251Z,54.20
2023-01-19T02:59:25.399Z,54.20
2023-01-19T03:01:58.303Z,54.20
2023-01-19T03:04:31.562Z,54.60
2023-01-19T03:07:10.191Z,55.10
2023-01-19T03:09:49.453Z,55.00
2023-01-19T03:12:40.269Z,54.60
2023-01-19T03:15:20.947Z,54.50
2023-01-19T03:17:50.654Z,54.50
2023-01-19T03:20:22.670Z,54.20
2023-01-19T03:22:55.396Z,54.60
2023-01-19T03:25:24.703Z,54.20
2023-01-19T03:27:54.737Z,53.90
2023-01-19T03:30:27.024Z,54.10
2023-01-19T03:33:00.460Z,54.20
2023-01-19T03:35:33.139Z,54.10
2023-01-19T03:38:04.006Z,54.20
2023-01-19T03:40:32.651Z,54.00
2023-01-19T03:43:01.360Z,54.90
2023-01-19T03:45:28.539Z,55.00
2023-01-19T03:47:55.510Z,55.10
2023-01-19T03:50:27.371Z,54.70
2023-01-19T03:53:21.871Z,54.80
2023-01-19T03:55:51.373Z,54.70
2023-01-19T03:58:18.088Z,54.60
2023-01-19T04:00:44.839Z,55.10
2023-01-19T04:03:14.671Z,55.60
2023-01-19T04:05:41.941Z,56.10
2023-01-19T04:08:09.953Z,55.90
2023-01-19T04:10:36.919Z,56.30
2023-01-19T04:13:04.693Z,56.50
2023-01-19T04:15:32.469Z,56.30
2023-01-19T04:18:00.259Z,56.30
2023-01-19T04:20:28.274Z,56.50
2023-01-19T04:22:59.952Z,56.50
2023-01-19T04:25:27.788Z,56.80
2023-01-19T04:27:55.233Z,57.30
2023-01-19T04:30:22.695Z,56.90
2023-01-19T04:32:49.853Z,56.90
2023-01-19T04:35:17.062Z,56.70
2023-01-19T04:37:45.024Z,57.20
2023-01-19T04:40:12.391Z,57.40
2023-01-19T04:42:42.803Z,57.50
2023-01-19T04:45:10.046Z,57.80
2023-01-19T04:47:37.221Z,58.10
2023-01-19T04:50:05.712Z,58.00
2023-01-19T04:52:36.333Z,57.70
2023-01-19T04:55:06.565Z,57.90
2023-01-19T04:57:33.305Z,58.10
2023-01-19T05:00:00.156Z,58.20
2023-01-19T05:02:27.359Z,57.60
2023-01-19T05:04:54.760Z,57.50
2023-01-19T05:07:21.437Z,57.60
2023-01-19T05:09:48.231Z,58.10
2023-01-19T05:12:15.067Z,58.00
2023-01-19T05:14:41.858Z,58.10
2023-01-19T05:17:08.783Z,57.90
2023-01-19T05:19:35.562Z,57.90
2023-01-19T05:22:03.821Z,58.00
2023-01-19T05:24:30.661Z,58.50
2023-01-19T05:26:57.850Z,58.50
2023-01-19T05:29:24.676Z,58.10
2023-01-19T05:31:51.548Z,58.00
2023-01-19T05:34:18.686Z,58.20
2023-01-19T05:36:45.397Z,58.20
2023-01-19T05:39:12.210Z,58.00
2023-01-19T05:41:38.936Z,57.70
2023-01-19T05:44:05.728Z,58.00
2023-01-19T05:46:33.989Z,57.60
2023-01-19T05:49:04.165Z,57.90
2023-01-19T05:51:35.203Z,57.80
2023-01-19T05:54:02.324Z,57.50
2023-01-19T05:56:29.364Z,57.50
2023-01-19T05:58:56.061Z,57.20
2023-01-19T06:01:23.037Z,56.90
2023-01-19T06:03:49.788Z,56.80
2023-01-19T06:06:17.217Z,57.20
2023-01-19T06:08:44.775Z,57.30
2023-01-19T06:11:12.465Z,57.60
2023-01-19T06:13:42.800Z,57.40
2023-01-19T06:16:09.937Z,57.10
2023-01-19T06:18:36.662Z,57.20
2023-01-19T06:21:05.641Z,56.90
2023-01-19T06:23:33.942Z,57.40
2023-01-19T06:26:01.093Z,57.40
2023-01-19T06:28:27.905Z,57.50
2023-01-19T06:30:56.185Z,57.50
2023-01-19T06:33:24.982Z,57.60
2023-01-19T06:35:52.238Z,57.40
2023-01-19T06:38:19.398Z,57.70
2023-01-19T06:40:52.639Z,58.60
2023-01-19T06:43:20.356Z,57.80
2023-01-19T06:45:47.497Z,57.80
2023-01-19T06:48:14.459Z,57.70
2023-01-19T06:50:41.569Z,57.50
2023-01-19T06:53:08.403Z,57.40
2023-01-19T06:55:36.496Z,57.10
2023-01-19T06:58:03.427Z,56.90
2023-01-19T07:00:30.336Z,57.10
2023-01-19T07:02:57.094Z,56.90
2023-01-19T07:05:24.482Z,56.60
2023-01-19T07:07:55.499Z,56.80
2023-01-19T07:10:23.617Z,56.20
2023-01-19T07:12:50.766Z,56.00
2023-01-19T07:15:19.839Z,55.70
2023-01-19T07:17:46.640Z,56.10
2023-01-19T07:20:14.531Z,55.70
2023-01-19T07:22:46.540Z,55.90
2023-01-19T07:25:14.522Z,55.50
2023-01-19T07:27:41.303Z,55.40
2023-01-19T07:30:09.132Z,55.00
2023-01-19T07:32:36.067Z,54.70
2023-01-19T07:35:03.245Z,54.50
2023-01-19T07:37:30.090Z,54.20
2023-01-19T07:39:56.890Z,53.80
2023-01-19T07:42:23.596Z,53.70
2023-01-19T07:44:50.342Z,53.60
2023-01-19T07:47:17.348Z,53.50
2023-01-19T07:49:44.144Z,53.50
2023-01-19T07:52:10.967Z,53.70
2023-01-19T07:54:38.368Z,53.30
2023-01-19T07:57:05.123Z,53.30
2023-01-19T07:59:32.396Z,53.40
2023-01-19T08:01:59.773Z,53.10
2023-01-19T08:04:28.010Z,52.40
2023-01-19T08:06:56.039Z,52.30
2023-01-19T08:09:24.025Z,51.60
2023-01-19T08:11:50.753Z,51.20
2023-01-19T08:14:17.761Z,51.20
2023-01-19T08:16:46.135Z,51.20
2023-01-19T08:19:12.834Z,51.20
2023-01-19T08:21:39.635Z,51.40
2023-01-19T08:24:06.799Z,51.40
2023-01-19T08:26:35.380Z,51.50
2023-01-19T08:29:04.924Z,51.50
2023-01-19T08:31:32.052Z,51.60
2023-01-19T08:33:59.243Z,51.40
2023-01-19T08:36:26.586Z,51.20
2023-01-19T08:38:53.285Z,51.60
2023-01-19T08:41:20.231Z,51.50
2023-01-19T08:43:47.158Z,50.90
2023-01-19T08:46:21.341Z,50.30
2023-01-19T08:48:48.705Z,50.10
2023-01-19T08:51:16.175Z,49.90
2023-01-19T08:53:43.393Z,49.00
2023-01-19T08:56:14.498Z,49.30
2023-01-19T08:58:43.101Z,48.90
2023-01-19T09:01:11.282Z,48.70
2023-01-19T09:03:38.112Z,48.30
2023-01-19T09:06:08.823Z,47.70
2023-01-19T09:08:35.852Z,47.70
2023-01-19T09:11:02.702Z,47.70
2023-01-19T09:13:29.519Z,47.10
2023-01-19T09:15:56.334Z,46.70
2023-01-19T09:18:24.144Z,46.30
2023-01-19T09:20:51.198Z,46.00
2023-01-19T09:23:20.423Z,46.40
2023-01-19T09:25:48.143Z,46.70
2023-01-19T09:28:17.628Z,45.80
2023-01-19T09:30:45.159Z,45.30
2023-01-19T09:33:17.268Z,45.70
2023-01-19T09:35:45.997Z,45.20
2023-01-19T09:38:15.284Z,44.10
2023-01-19T09:41:17.573Z,43.50
2023-01-19T09:43:58.021Z,43.30
2023-01-19T09:46:36.972Z,43.90
2023-01-19T09:49:11.619Z,43.20
2023-01-19T09:51:41.575Z,42.90
2023-01-19T09:54:20.724Z,43.10
2023-01-19T09:56:51.320Z,41.70
2023-01-19T09:59:20.882Z,41.10
2023-01-19T10:02:02.858Z,40.90
2023-01-19T10:04:31.833Z,40.00
2023-01-19T10:07:10.760Z,38.90
2023-01-19T10:10:01.064Z,37.80
2023-01-19T10:12:58.285Z,36.90
2023-01-19T10:16:01.827Z,36.30
2023-01-19T10:18:35.703Z,35.50
2023-01-19T10:21:13.108Z,34.60
2023-01-19T10:23:57.310Z,33.90
2023-01-19T10:26:39.358Z,32.70
2023-01-19T10:29:26.074Z,32.20
2023-01-19T10:32:04.237Z,32.10
2023-01-19T10:34:30.999Z,31.80
2023-01-19T10:37:04.753Z,32.50
2023-01-19T10:39:31.830Z,31.40
2023-01-19T10:42:03.849Z,31.20
2023-01-19T10:44:36.667Z,31.80
2023-01-19T10:47:06.243Z,31.90
2023-01-19T10:49:44.748Z,30.10
2023-01-19T10:52:26.602Z,29.50
2023-01-19T10:54:53.978Z,30.60
2023-01-19T10:57:32.981Z,30.50
2023-01-19T10:59:59.940Z,31.40
2023-01-19T11:02:29.370Z,31.70
2023-01-19T11:04:59.304Z,32.50
2023-01-19T11:07:25.968Z,33.00
2023-01-19T11:10:17.505Z,32.70
2023-01-19T11:13:01.782Z,33.00
2023-01-19T11:15:44.637Z,33.60
2023-01-19T11:18:33.989Z,33.90
2023-01-19T11:21:09.806Z,34.20
2023-01-19T11:23:51.527Z,34.50
2023-01-19T11:26:32.406Z,35.00
2023-01-19T11:29:00.971Z,34.60
2023-01-19T11:31:27.819Z,34.80
2023-01-19T11:34:00.039Z,34.90
2023-01-19T11:36:32.568Z,34.80
2023-01-19T11:39:02.600Z,34.80
2023-01-19T11:41:37.187Z,35.40
2023-01-19T11:44:19.406Z,34.60
2023-01-19T11:46:50.754Z,34.70
2023-01-19T11:49:44.232Z,34.60
2023-01-19T11:52:10.898Z,34.20
2023-01-19T11:54:47.492Z,33.80
2023-01-19T11:57:17.209Z,34.00
2023-01-19T11:59:44.775Z,34.30
2023-01-19T12:02:26.269Z,33.90
2023-01-19T12:04:57.937Z,33.80
2023-01-19T12:07:30.363Z,33.70
2023-01-19T12:10:13.205Z,34.10
2023-01-19T12:12:41.200Z,34.20
2023-01-19T12:15:36.199Z,33.50
2023-01-19T12:18:04.791Z,32.80
2023-01-19T12:20:35.184Z,32.60
2023-01-19T12:23:22.527Z,32.80
2023-01-19T12:26:16.436Z,32.70
2023-01-19T12:28:48.311Z,32.70
2023-01-19T12:31:17.930Z,32.50
2023-01-19T12:33:44.843Z,32.20
2023-01-19T12:36:26.632Z,31.90
2023-01-19T12:39:04.282Z,33.40
2023-01-19T12:41:34.319Z,33.50
2023-01-19T12:44:16.001Z,33.00
2023-01-19T12:46:50.189Z,33.50
2023-01-19T12:49:38.434Z,33.50
2023-01-19T12:52:20.363Z,34.20
2023-01-19T12:55:12.772Z,33.50
2023-01-19T12:57:46.645Z,32.40
2023-01-19T13:00:22.393Z,32.40
2023-01-19T13:02:51.568Z,32.60
2023-01-19T13:05:47.820Z,32.90
2023-01-19T13:08:16.167Z,32.80
2023-01-19T13:11:09.494Z,33.20
2023-01-19T13:14:05.373Z,32.90
2023-01-19T13:16:32.081Z,33.10
2023-01-19T13:19:06.236Z,33.40
2023-01-19T13:21:34.710Z,33.00
2023-01-19T13:24:05.655Z,33.00
2023-01-19T13:26:38.573Z,33.10
2023-01-19T13:29:05.252Z,33.00
2023-01-19T13:31:40.233Z,33.30
2023-01-19T13:34:16.931Z,33.10
2023-01-19T13:36:45.955Z,32.80
2023-01-19T13:39:23.641Z,33.20
2023-01-19T13:41:54.764Z,33.10
2023-01-19T13:44:29.115Z,33.10
2023-01-19T13:46:57.578Z,33.30
2023-01-19T13:49:36.322Z,33.00
2023-01-19T13:52:14.159Z,32.90
2023-01-19T13:54:53.136Z,33.10
2023-01-19T13:57:30.997Z,33.30
2023-01-19T14:00:01.640Z,33.80
2023-01-19T14:02:28.418Z,33.40
2023-01-19T14:04:57.222Z,33.80
2023-01-19T14:07:26.563Z,33.70
2023-01-19T14:10:09.469Z,33.80
2023-01-19T14:12:43.534Z,33.80
2023-01-19T14:15:15.080Z,33.30
2023-01-19T14:17:42.245Z,33.20
2023-01-19T14:20:29.705Z,33.10
2023-01-19T14:22:56.496Z,33.40
2023-01-19T14:25:37.921Z,33.10
2023-01-19T14:28:28.542Z,33.70
2023-01-19T14:30:57.388Z,33.70
2023-01-19T14:33:45.375Z,34.00
2023-01-19T14:36:17.560Z,33.90
2023-01-19T14:38:46.629Z,33.90
2023-01-19T14:41:44.707Z,33.80
2023-01-19T14:44:18.767Z,33.90
2023-01-19T14:46:49.020Z,33.60
2023-01-19T14:49:46.813Z,33.70
2023-01-19T14:52:24.633Z,33.80
2023-01-19T14:54:54.247Z,34.00
2023-01-19T14:57:23.112Z,34.20
2023-01-19T14:59:50.418Z,34.50
2023-01-19T15:02:20.585Z,34.60
2023-01-19T15:04:48.286Z,34.60
2023-01-19T15:07:22.563Z,34.70
2023-01-19T15:09:50.072Z,34.30
2023-01-19T15:12:18.506Z,34.50
2023-01-19T15:14:45.915Z,34.60
2023-01-19T15:17:25.436Z,34.60
2023-01-19T15:19:56.125Z,34.70
2023-01-19T15:22:26.826Z,35.10
2023-01-19T15:24:57.566Z,34.60
2023-01-19T15:27:24.578Z,34.70
2023-01-19T15:29:51.343Z,34.70
2023-01-19T15:32:18.171Z,35.00
2023-01-19T15:34:47.725Z,35.40
2023-01-19T15:37:14.430Z,35.60
2023-01-19T15:39:41.227Z,35.80
2023-01-19T15:42:16.401Z,36.00
2023-01-19T15:44:45.022Z,36.10
2023-01-19T15:47:11.804Z,36.20
2023-01-19T15:49:38.586Z,36.20
2023-01-19T15:52:05.318Z,36.50
2023-01-19T15:54:32.026Z,36.80
2023-01-19T15:56:58.764Z,36.80
2023-01-19T15:59:25.846Z,37.10
2023-01-19T16:01:52.606Z,37.60
2023-01-19T16:04:19.619Z,38.10
2023-01-19T16:06:46.362Z,38.40
2023-01-19T16:09:18.397Z,38.50
2023-01-19T16:11:45.161Z,39.30
2023-01-19T16:14:12.278Z,39.80
2023-01-19T16:16:39.027Z,40.10
2023-01-19T16:19:05.811Z,40.60
2023-01-19T16:21:32.547Z,40.50
2023-01-19T16:23:59.270Z,40.70
2023-01-19T16:26:32.598Z,40.80
2023-01-19T16:29:01.770Z,41.10
2023-01-19T16:31:29.387Z,41.00
2023-01-19T16:33:56.259Z,41.50
2023-01-19T16:36:24.459Z,41.70
2023-01-19T16:38:51.445Z,41.60
2023-01-19T16:41:18.319Z,42.10
2023-01-19T16:43:49.509Z,42.20
2023-01-19T16:46:24.889Z,42.20
2023-01-19T16:48:52.275Z,42.40
2023-01-19T16:51:19.581Z,43.50
2023-01-19T16:53:48.461Z,43.10
2023-01-19T16:56:15.405Z,43.40
2023-01-19T16:58:42.488Z,43.30
2023-01-19T17:01:11.495Z,43.50
2023-01-19T17:03:38.630Z,43.30
2023-01-19T17:06:10.528Z,43.00
2023-01-19T17:08:37.497Z,43.10
2023-01-19T17:11:20.893Z,43.10
2023-01-19T17:13:57.065Z,43.10
2023-01-19T17:16:25.335Z,43.00
2023-01-19T17:18:52.265Z,42.80
2023-01-19T17:21:20.078Z,42.60
2023-01-19T17:23:48.922Z,42.50
2023-01-19T17:26:16.940Z,42.00
2023-01-19T17:28:44.348Z,41.70
2023-01-19T17:31:19.510Z,41.70
2023-01-19T17:33:48.801Z,41.70
2023-01-19T17:36:17.840Z,41.40
2023-01-19T17:38:44.542Z,41.60
2023-01-19T17:41:15.172Z,41.60
2023-01-19T17:43:41.939Z,41.70
2023-01-19T17:46:09.304Z,42.00
2023-01-19T17:48:36.189Z,42.30
2023-01-19T17:51:05.657Z,42.40
2023-01-19T17:53:33.289Z,42.50
2023-01-19T17:56:16.584Z,42.60
2023-01-19T17:58:44.339Z,43.00
2023-01-19T18:01:17.496Z,43.10
2023-01-19T18:03:44.426Z,42.50
2023-01-19T18:06:11.707Z,42.70
2023-01-19T18:08:44.380Z,42.50
2023-01-19T18:11:11.556Z,43.00
2023-01-19T18:13:39.346Z,43.60
2023-01-19T18:16:09.450Z,44.10
2023-01-19T18:18:38.106Z,44.30
2023-01-19T18:21:07.670Z,43.90
2023-01-19T18:23:34.866Z,43.80
2023-01-19T18:26:09.944Z,43.80
2023-01-19T18:28:37.324Z,43.10
2023-01-19T18:31:08.915Z,43.20
2023-01-19T18:33:36.522Z,43.30
2023-01-19T18:36:04.199Z,43.40
2023-01-19T18:38:31.429Z,43.00
2023-01-19T18:41:07.252Z,43.10
2023-01-19T18:43:34.348Z,43.10
2023-01-19T18:46:01.129Z,42.80
2023-01-19T18:48:31.358Z,42.90
2023-01-19T18:51:03.190Z,43.30
2023-01-19T18:53:31.669Z,43.40
2023-01-19T18:56:01.876Z,43.20
2023-01-19T18:58:29.791Z,43.60
2023-01-19T19:01:00.433Z,43.70
2023-01-19T19:03:27.726Z,43.90
2023-01-19T19:05:55.466Z,43.60
2023-01-19T19:08:26.389Z,43.30
2023-01-19T19:10:53.179Z,43.30
2023-01-19T19:13:21.846Z,43.40
2023-01-19T19:15:48.689Z,43.00
2023-01-19T19:18:16.281Z,43.00
2023-01-19T19:20:43.498Z,42.80
2023-01-19T19:23:13.512Z,43.00
2023-01-19T19:25:40.343Z,42.80
2023-01-19T19:28:07.245Z,42.70
2023-01-19T19:30:35.754Z,43.50
2023-01-19T19:33:03.200Z,43.70
2023-01-19T19:35:30.010Z,43.90
2023-01-19T19:37:57.787Z,44.20
2023-01-19T19:40:28.217Z,44.00
2023-01-19T19:42:57.572Z,44.10
2023-01-19T19:45:25.512Z,44.20
2023-01-19T19:47:52.311Z,44.20
2023-01-19T19:50:19.089Z,44.00
2023-01-19T19:52:45.884Z,44.20
2023-01-19T19:55:12.779Z,44.40
2023-01-19T19:57:39.623Z,44.20
2023-01-19T20:00:07.749Z,44.40
2023-01-19T20:02:34.533Z,44.30
2023-01-19T20:05:01.344Z,44.40
2023-01-19T20:07:28.120Z,44.50
2023-01-19T20:09:55.167Z,45.40
2023-01-19T20:12:22.137Z,44.80
2023-01-19T20:14:48.894Z,45.00
2023-01-19T20:17:15.627Z,44.80
2023-01-19T20:19:43.803Z,45.10
2023-01-19T20:22:10.509Z,47.70
2023-01-19T20:24:37.286Z,51.20
2023-01-19T20:27:04.327Z,46.60
2023-01-19T20:29:31.108Z,45.60
2023-01-19T20:31:58.179Z,45.60
2023-01-19T20:34:28.228Z,45.60
2023-01-19T20:36:55.430Z,45.60
2023-01-19T20:39:23.582Z,45.20
2023-01-19T20:41:51.439Z,45.40
2023-01-19T20:44:27.294Z,45.30
2023-01-19T20:46:54.982Z,45.50
2023-01-19T20:49:21.974Z,45.90
2023-01-19T20:51:50.014Z,45.90
2023-01-19T20:54:18.844Z,46.20
2023-01-19T20:56:45.703Z,46.20
2023-01-19T20:59:13.465Z,47.00
2023-01-19T21:01:41.593Z,46.40
2023-01-19T21:04:09.479Z,46.60
2023-01-19T21:06:36.838Z,46.60
2023-01-19T21:09:04.934Z,46.80
2023-01-19T21:11:31.688Z,47.20
2023-01-19T21:13:58.457Z,47.10
2023-01-19T21:16:27.944Z,47.00
2023-01-19T21:18:55.147Z,46.60
2023-01-19T21:21:30.229Z,46.40
2023-01-19T21:24:01.287Z,46.40
2023-01-19T21:26:33.350Z,46.20
2023-01-19T21:29:01.561Z,46.20
2023-01-19T21:31:28.714Z,46.20
2023-01-19T21:33:56.922Z,45.90
2023-01-19T21:36:24.635Z,45.40
2023-01-19T21:38:52.415Z,45.50
2023-01-19T21:41:19.729Z,45.20
2023-01-19T21:43:47.055Z,45.50
2023-01-19T21:46:17.991Z,45.80
2023-01-19T21:48:45.870Z,45.60
2023-01-19T21:51:13.253Z,45.50
2023-01-19T21:53:40.567Z,45.90
2023-01-19T21:56:09.463Z,45.90
2023-01-19T21:58:36.881Z,45.50
2023-01-19T22:01:15.587Z,45.40
2023-01-19T22:03:43.765Z,45.60
2023-01-19T22:06:13.407Z,45.50
2023-01-19T22:08:58.409Z,45.50
2023-01-19T22:11:25.483Z,45.80
2023-01-19T22:13:52.644Z,45.70
2023-01-19T22:16:21.819Z,45.40
2023-01-19T22:18:56.231Z,45.60
2023-01-19T22:21:25.019Z,45.20
2023-01-19T22:23:54.555Z,45.40
2023-01-19T22:26:22.029Z,45.50
2023-01-19T22:28:52.396Z,45.20
2023-01-19T22:31:19.552Z,44.90
2023-01-19T22:33:46.650Z,44.60
2023-01-19T22:36:16.189Z,44.40
2023-01-19T22:38:44.389Z,44.30
2023-01-19T22:41:13.036Z,44.10
2023-01-19T22:43:39.855Z,43.40
2023-01-19T22:46:08.741Z,43.10
2023-01-19T22:48:36.253Z,42.70
2023-01-19T22:51:03.421Z,43.40
2023-01-19T22:53:33.393Z,43.80
2023-01-19T22:56:00.231Z,43.50
2023-01-19T22:58:26.979Z,43.50
2023-01-19T23:00:53.814Z,43.90
2023-01-19T23:03:20.586Z,43.60
2023-01-19T23:05:47.356Z,42.80
2023-01-19T23:08:14.139Z,42.40
2023-01-19T23:10:40.962Z,42.80
2023-01-19T23:13:07.720Z,42.60
2023-01-19T23:15:34.955Z,42.60
2023-01-19T23:18:02.022Z,43.10
2023-01-19T23:20:28.832Z,43.10
2023-01-19T23:22:55.653Z,43.20
2023-01-19T23:25:22.442Z,43.40
2023-01-19T23:27:49.193Z,43.80
2023-01-19T23:30:16.252Z,43.80
2023-01-19T23:32:47.374Z,43.80
2023-01-19T23:35:14.731Z,43.50
2023-01-19T23:37:41.881Z,43.60
2023-01-19T23:43:57.579Z,43.40
2023-01-19T23:46:24.642Z,43.20
2023-01-19T23:48:51.723Z,42.90
2023-01-19T23:51:24.085Z,42.70
2023-01-19T23:53:51.342Z,43.50
2023-01-19T23:56:21.094Z,42.50
2023-01-19T23:58:52.678Z,41.80
